createdAt,value
2018-03-28T00:01:26.134Z,99573.41
2018-03-28T00:03:54.609Z,99574.02
2018-03-28T00:06:23.139Z,99582.34
2018-03-28T00:08:51.670Z,99581.94
2018-03-28T00:11:20.123Z,99558.34
2018-03-28T00:13:48.618Z,99567.83
2018-03-28T00:16:17.125Z,99565.03
2018-03-28T00:18:45.583Z,99562.23
2018-03-28T00:21:14.038Z,99560.23
2018-03-28T00:23:42.542Z,99562.05
2018-03-28T00:26:11.000Z,99555.83
2018-03-28T00:28:39.481Z,99547.44
2018-03-28T00:31:07.979Z,99565.03
2018-03-28T00:33:36.474Z,99565.84
2018-03-28T00:36:04.981Z,99573.67
2018-03-28T00:38:33.443Z,99577.04
2018-03-28T00:41:01.954Z,99586.91
2018-03-28T00:43:30.463Z,99578.89
2018-03-28T00:45:59.858Z,99575.75
2018-03-28T00:48:28.350Z,99574.21
2018-03-28T00:50:56.888Z,99577.95
2018-03-28T00:53:25.421Z,99589.11
2018-03-28T00:55:53.898Z,99583.83
2018-03-28T00:58:22.394Z,99572.95
2018-03-28T01:00:50.861Z,99574.05
2018-03-28T01:03:19.398Z,99561.73
2018-03-28T01:05:47.869Z,99554.67
2018-03-28T01:08:16.365Z,99545.96
2018-03-28T01:10:44.876Z,99552.78
2018-03-28T01:13:13.338Z,99551.68
2018-03-28T01:15:41.848Z,99542.72
2018-03-28T01:18:10.342Z,99534.84
2018-03-28T01:20:38.907Z,99531.73
2018-03-28T01:23:07.423Z,99531.25
2018-03-28T01:25:35.932Z,99518.03
2018-03-28T01:28:04.410Z,99529.41
2018-03-28T01:30:32.918Z,99528.65
2018-03-28T01:33:01.385Z,99533.52
2018-03-28T01:35:29.850Z,99543.83
2018-03-28T01:37:58.342Z,99552.50
2018-03-28T01:40:26.857Z,99546.34
2018-03-28T01:42:55.350Z,99549.98
2018-03-28T01:45:23.810Z,99536.34
2018-03-28T01:47:52.310Z,99538.52
2018-03-28T01:50:20.827Z,99546.34
2018-03-28T01:52:49.301Z,99540.27
2018-03-28T01:55:17.802Z,99537.07
2018-03-28T01:57:46.295Z,99546.69
2018-03-28T02:00:14.793Z,99550.36
2018-03-28T02:02:43.305Z,99539.27
2018-03-28T02:05:11.797Z,99554.26
2018-03-28T02:07:40.285Z,99552.03
2018-03-28T02:10:08.784Z,99540.40
2018-03-28T02:12:37.266Z,99536.85
2018-03-28T02:15:05.774Z,99539.27
2018-03-28T02:17:34.289Z,99544.11
2018-03-28T02:20:02.803Z,99526.33
2018-03-28T02:22:31.302Z,99542.98
2018-03-28T02:24:59.793Z,99555.20
2018-03-28T02:27:28.290Z,99553.72
2018-03-28T02:29:56.749Z,99546.69
2018-03-28T02:32:25.258Z,99542.63
2018-03-28T02:34:53.730Z,99537.13
2018-03-28T02:37:22.223Z,99535.78
2018-03-28T02:39:50.710Z,99532.33
2018-03-28T02:42:19.211Z,99534.84
2018-03-28T02:44:47.711Z,99536.06
2018-03-28T02:47:16.618Z,99541.47
2018-03-28T02:49:45.125Z,99536.70
2018-03-28T02:52:13.635Z,99534.30
2018-03-28T02:54:42.110Z,99534.69
2018-03-28T02:57:10.609Z,99533.84
2018-03-28T02:59:39.106Z,99537.45
2018-03-28T03:02:07.606Z,99543.70
2018-03-28T03:04:36.113Z,99545.45
2018-03-28T03:07:04.634Z,99541.25
2018-03-28T03:09:33.133Z,99539.36
2018-03-28T03:12:01.621Z,99540.72
2018-03-28T03:14:30.114Z,99541.19
2018-03-28T03:16:58.579Z,99541.91
2018-03-28T03:19:27.081Z,99524.28
2018-03-28T03:21:55.552Z,99540.59
2018-03-28T03:24:24.010Z,99535.09
2018-03-28T03:26:52.518Z,99533.52
2018-03-28T03:29:21.009Z,99532.20
2018-03-28T03:31:49.473Z,99534.97
2018-03-28T03:34:17.930Z,99530.50
2018-03-28T03:36:46.472Z,99529.75
2018-03-28T03:39:14.942Z,99518.09
2018-03-28T03:41:43.416Z,99536.09
2018-03-28T03:44:11.906Z,99539.02
2018-03-28T03:46:40.374Z,99537.67
2018-03-28T03:49:08.913Z,99540.09
2018-03-28T03:51:37.369Z,99541.84
2018-03-28T03:54:05.864Z,99543.10
2018-03-28T03:56:34.325Z,99542.28
2018-03-28T03:59:02.832Z,99545.08
2018-03-28T04:01:31.348Z,99549.09
2018-03-28T04:03:59.846Z,99542.34
2018-03-28T04:06:28.325Z,99549.79
2018-03-28T04:08:56.818Z,99545.86
2018-03-28T04:11:25.285Z,99541.94
2018-03-28T04:13:53.748Z,99540.23
2018-03-28T04:16:22.249Z,99540.45
2018-03-28T04:18:50.758Z,99533.86
2018-03-28T04:21:19.218Z,99533.01
2018-03-28T04:23:47.696Z,99538.88
2018-03-28T04:26:16.185Z,99541.90
2018-03-28T04:28:44.654Z,99543.00
2018-03-28T04:31:13.150Z,99542.46
2018-03-28T04:33:41.651Z,99544.78
2018-03-28T04:36:10.126Z,99549.02
2018-03-28T04:38:38.633Z,99547.80
2018-03-28T04:41:07.140Z,99553.55
2018-03-28T04:43:35.647Z,99539.94
2018-03-28T04:46:04.110Z,99555.17
2018-03-28T04:48:32.665Z,99555.90
2018-03-28T04:51:01.175Z,99551.84
2018-03-28T04:53:29.631Z,99550.63
2018-03-28T04:55:58.090Z,99551.04
2018-03-28T04:58:26.614Z,99532.53
2018-03-28T05:00:55.105Z,99554.59
2018-03-28T05:03:23.602Z,99554.97
2018-03-28T05:05:52.118Z,99562.89
2018-03-28T05:08:20.594Z,99561.75
2018-03-28T05:10:49.074Z,99559.91
2018-03-28T05:13:17.614Z,99566.87
2018-03-28T05:15:46.132Z,99562.48
2018-03-28T05:18:14.632Z,99564.23
2018-03-28T05:20:43.198Z,99554.41
2018-03-28T05:23:11.665Z,99570.11
2018-03-28T05:25:40.297Z,99565.78
2018-03-28T05:28:09.050Z,99549.84
2018-03-28T05:30:37.521Z,99559.15
2018-03-28T05:33:05.999Z,99566.09
2018-03-28T05:35:34.499Z,99563.73
2018-03-28T05:38:02.960Z,99560.20
2018-03-28T05:40:31.478Z,99575.38
2018-03-28T05:42:59.979Z,99567.56
2018-03-28T05:45:28.469Z,99558.44
2018-03-28T05:47:56.975Z,99548.02
2018-03-28T05:50:25.506Z,99569.98
2018-03-28T05:52:54.002Z,99574.91
2018-03-28T05:55:22.536Z,99564.39
2018-03-28T05:57:51.054Z,99576.64
2018-03-28T06:00:19.511Z,99565.34
2018-03-28T06:02:48.010Z,99561.99
2018-03-28T06:05:16.496Z,99570.70
2018-03-28T06:07:44.994Z,99552.75
2018-03-28T06:10:13.460Z,99557.88
2018-03-28T06:12:41.958Z,99578.86
2018-03-28T06:15:10.470Z,99580.68
2018-03-28T06:17:38.940Z,99568.55
2018-03-28T06:20:07.455Z,99538.54
2018-03-28T06:22:35.993Z,99574.59
2018-03-28T06:25:04.491Z,99578.02
2018-03-28T06:27:32.998Z,99581.25
2018-03-28T06:30:01.502Z,99583.45
2018-03-28T06:32:30.018Z,99575.58
2018-03-28T06:34:58.478Z,99585.81
2018-03-28T06:37:26.962Z,99591.30
2018-03-28T06:39:55.543Z,99585.44
2018-03-28T06:42:24.002Z,99590.50
2018-03-28T06:44:52.511Z,99591.84
2018-03-28T06:47:21.057Z,99596.15
2018-03-28T06:49:49.531Z,99598.42
2018-03-28T06:52:18.064Z,99603.11
2018-03-28T06:54:46.548Z,99603.36
2018-03-28T06:57:15.005Z,99593.61
2018-03-28T06:59:43.568Z,99597.75
2018-03-28T07:02:12.008Z,99600.02
2018-03-28T07:04:41.289Z,99601.30
2018-03-28T07:07:09.776Z,99602.33
2018-03-28T07:09:38.277Z,99586.59
2018-03-28T07:12:06.785Z,99594.03
2018-03-28T07:14:35.243Z,99605.63
2018-03-28T07:17:03.755Z,99611.70
2018-03-28T07:19:32.226Z,99601.67
2018-03-28T07:22:01.085Z,99589.70
2018-03-28T07:24:29.698Z,99625.66
2018-03-28T07:26:58.205Z,99617.39
2018-03-28T07:29:26.670Z,99625.81
2018-03-28T07:31:55.178Z,99625.06
2018-03-28T07:34:23.665Z,99619.59
2018-03-28T07:36:52.149Z,99628.64
2018-03-28T07:39:20.666Z,99625.69
2018-03-28T07:41:49.132Z,99620.66
2018-03-28T07:44:17.609Z,99633.88
2018-03-28T07:46:46.105Z,99624.92
2018-03-28T07:49:14.623Z,99616.21
2018-03-28T07:51:43.134Z,99613.91
2018-03-28T07:54:11.606Z,99624.27
2018-03-28T07:56:40.115Z,99619.51
2018-03-28T07:59:08.581Z,99622.60
2018-03-28T08:01:37.087Z,99616.47
2018-03-28T08:04:05.586Z,99615.24
2018-03-28T08:06:34.054Z,99611.25
2018-03-28T08:09:02.555Z,99632.16
2018-03-28T08:11:31.055Z,99608.06
2018-03-28T08:13:59.578Z,99624.53
2018-03-28T08:16:28.038Z,99624.63
2018-03-28T08:18:56.538Z,99615.39
2018-03-28T08:21:25.074Z,99599.83
2018-03-28T08:23:53.530Z,99613.36
2018-03-28T08:26:22.006Z,99617.78
2018-03-28T08:28:50.514Z,99615.30
2018-03-28T08:31:19.021Z,99620.72
2018-03-28T08:33:47.542Z,99613.41
2018-03-28T08:36:16.083Z,99618.12
2018-03-28T08:38:44.542Z,99608.86
2018-03-28T08:41:13.059Z,99617.76
2018-03-28T08:43:41.522Z,99619.93
2018-03-28T08:46:10.031Z,99592.69
2018-03-28T08:48:38.564Z,99612.01
2018-03-28T08:51:07.054Z,99619.59
2018-03-28T08:53:35.575Z,99597.28
2018-03-28T08:56:04.068Z,99613.58
2018-03-28T08:58:32.547Z,99615.23
2018-03-28T09:01:01.042Z,99614.10
2018-03-28T09:03:29.540Z,99590.48
2018-03-28T09:05:58.076Z,99600.02
2018-03-28T09:08:26.588Z,99595.31
2018-03-28T09:10:55.104Z,99604.52
2018-03-28T09:13:26.160Z,99589.79
2018-03-28T09:15:56.792Z,99591.73
2018-03-28T09:18:26.080Z,99575.14
2018-03-28T09:20:54.917Z,99585.47
2018-03-28T09:23:23.493Z,99594.30
2018-03-28T09:25:51.957Z,99583.05
2018-03-28T09:28:20.457Z,99584.53
2018-03-28T09:30:48.957Z,99575.09
2018-03-28T09:33:17.427Z,99565.87
2018-03-28T09:35:45.943Z,99573.90
2018-03-28T09:38:14.447Z,99581.30
2018-03-28T09:40:42.954Z,99557.28
2018-03-28T09:43:11.440Z,99579.48
2018-03-28T09:45:39.964Z,99567.84
2018-03-28T09:48:08.439Z,99577.04
2018-03-28T09:50:36.949Z,99554.72
2018-03-28T09:53:05.470Z,99566.72
2018-03-28T09:55:33.943Z,99569.64
2018-03-28T09:58:02.453Z,99568.52
2018-03-28T10:00:30.943Z,99540.33
2018-03-28T10:03:04.837Z,99559.02
2018-03-28T10:05:39.167Z,99565.90
2018-03-28T10:08:07.677Z,99559.61
2018-03-28T10:10:36.429Z,99554.42
2018-03-28T10:13:04.902Z,99560.41
2018-03-28T10:15:33.413Z,99561.16
2018-03-28T10:18:01.890Z,99556.91
2018-03-28T10:20:30.406Z,99541.02
2018-03-28T10:22:58.868Z,99554.84
2018-03-28T10:25:27.382Z,99549.42
2018-03-28T10:27:55.850Z,99548.83
2018-03-28T10:30:24.342Z,99557.41
2018-03-28T10:32:52.868Z,99545.16
2018-03-28T10:35:21.370Z,99545.00
2018-03-28T10:37:50.160Z,99544.68
2018-03-28T10:40:19.662Z,99547.28
2018-03-28T10:42:48.163Z,99549.27
2018-03-28T10:45:16.686Z,99549.06
2018-03-28T10:47:45.190Z,99544.16
2018-03-28T10:50:13.740Z,99546.57
2018-03-28T10:52:42.334Z,99533.85
2018-03-28T10:55:10.802Z,99537.77
2018-03-28T10:57:39.314Z,99532.28
2018-03-28T11:00:07.858Z,99543.86
2018-03-28T11:02:36.370Z,99528.35
2018-03-28T11:05:04.838Z,99527.43
2018-03-28T11:07:33.245Z,99506.36
2018-03-28T11:10:01.645Z,99508.51
2018-03-28T11:12:30.095Z,99491.88
2018-03-28T11:14:58.570Z,99504.14
2018-03-28T11:17:27.069Z,99500.45
2018-03-28T11:19:55.478Z,99491.72
2018-03-28T11:22:23.912Z,99495.98
2018-03-28T11:24:52.361Z,99480.92
2018-03-28T11:27:20.805Z,99485.22
2018-03-28T11:29:49.298Z,99495.38
2018-03-28T11:32:17.734Z,99487.23
2018-03-28T11:34:46.163Z,99479.12
2018-03-28T11:37:14.671Z,99476.80
2018-03-28T11:39:43.133Z,99478.17
2018-03-28T11:42:12.045Z,99475.89
2018-03-28T11:44:40.702Z,99473.47
2018-03-28T11:47:09.199Z,99470.55
2018-03-28T11:49:37.718Z,99457.58
2018-03-28T11:52:06.199Z,99434.23
2018-03-28T11:54:34.678Z,99464.31
2018-03-28T11:57:03.201Z,99468.69
2018-03-28T11:59:31.713Z,99470.09
2018-03-28T12:02:00.250Z,99440.29
2018-03-28T12:04:28.769Z,99462.90
2018-03-28T12:06:57.274Z,99466.50
2018-03-28T12:09:25.774Z,99458.50
2018-03-28T12:11:54.289Z,99482.63
2018-03-28T12:14:22.818Z,99455.83
2018-03-28T12:16:51.282Z,99460.20
2018-03-28T12:19:19.845Z,99450.44
2018-03-28T12:21:48.365Z,99443.59
2018-03-28T12:24:16.903Z,99447.60
2018-03-28T12:26:45.417Z,99436.39
2018-03-28T12:29:13.913Z,99445.88
2018-03-28T12:31:42.390Z,99458.94
2018-03-28T12:34:10.912Z,99445.92
2018-03-28T12:36:39.378Z,99449.38
2018-03-28T12:39:07.941Z,99424.42
2018-03-28T12:41:36.442Z,99442.97
2018-03-28T12:44:04.964Z,99433.27
2018-03-28T12:46:33.443Z,99420.97
2018-03-28T12:49:01.950Z,99430.77
2018-03-28T12:51:30.444Z,99432.47
2018-03-28T12:53:59.009Z,99424.46
2018-03-28T12:56:27.528Z,99432.57
2018-03-28T12:58:56.125Z,99427.70
2018-03-28T13:01:25.242Z,99427.16
2018-03-28T13:03:53.756Z,99421.72
2018-03-28T13:06:22.266Z,99429.44
2018-03-28T13:08:50.815Z,99415.94
2018-03-28T13:11:19.301Z,99425.23
2018-03-28T13:13:47.824Z,99430.14
2018-03-28T13:16:16.339Z,99428.91
2018-03-28T13:18:44.870Z,99425.34
2018-03-28T13:21:13.438Z,99417.72
2018-03-28T13:23:41.946Z,99394.27
2018-03-28T13:26:10.423Z,99407.23
2018-03-28T13:28:38.922Z,99401.55
2018-03-28T13:31:07.386Z,99410.88
2018-03-28T13:33:35.912Z,99417.44
2018-03-28T13:36:04.437Z,99417.20
2018-03-28T13:38:32.946Z,99413.68
2018-03-28T13:41:01.446Z,99396.77
2018-03-28T13:43:29.921Z,99405.51
2018-03-28T13:45:58.414Z,99408.97
2018-03-28T13:48:26.927Z,99407.03
2018-03-28T13:50:55.452Z,99408.77
2018-03-28T13:53:23.919Z,99398.07
2018-03-28T13:55:52.458Z,99404.13
2018-03-28T13:58:20.930Z,99403.27
2018-03-28T14:00:49.398Z,99410.14
2018-03-28T14:03:17.962Z,99389.25
2018-03-28T14:05:46.485Z,99402.14
2018-03-28T14:08:15.058Z,99405.95
2018-03-28T14:10:43.593Z,99396.93
2018-03-28T14:13:12.098Z,99397.88
2018-03-28T14:15:40.626Z,99390.59
2018-03-28T14:18:09.094Z,99376.61
2018-03-28T14:20:37.569Z,99394.94
2018-03-28T14:23:06.078Z,99393.85
2018-03-28T14:25:34.550Z,99370.33
2018-03-28T14:28:03.234Z,99368.25
2018-03-28T14:30:31.726Z,99376.72
2018-03-28T14:33:00.257Z,99349.61
2018-03-28T14:35:28.760Z,99373.29
2018-03-28T14:37:57.226Z,99365.59
2018-03-28T14:40:25.774Z,99367.56
2018-03-28T14:42:54.586Z,99356.19
2018-03-28T14:45:22.807Z,99364.20
2018-03-28T14:47:51.270Z,99378.10
2018-03-28T14:50:19.773Z,99392.09
2018-03-28T14:52:48.270Z,99380.20
2018-03-28T14:55:16.735Z,99390.58
2018-03-28T14:57:45.249Z,99380.12
2018-03-28T15:00:13.714Z,99391.66
2018-03-28T15:02:42.226Z,99391.77
2018-03-28T15:05:10.710Z,99389.89
2018-03-28T15:07:39.247Z,99391.57
2018-03-28T15:10:07.722Z,99394.39
2018-03-28T15:12:36.226Z,99394.95
2018-03-28T15:15:04.721Z,99387.38
2018-03-28T15:17:33.218Z,99379.25
2018-03-28T15:20:01.735Z,99379.91
2018-03-28T15:22:30.202Z,99384.41
2018-03-28T15:24:58.665Z,99389.95
2018-03-28T15:27:27.182Z,99395.25
2018-03-28T15:29:55.647Z,99389.11
2018-03-28T15:32:24.128Z,99392.40
2018-03-28T15:34:52.630Z,99389.69
2018-03-28T15:37:21.129Z,99377.52
2018-03-28T15:39:49.644Z,99375.55
2018-03-28T15:42:18.110Z,99388.34
2018-03-28T15:44:46.610Z,99377.90
2018-03-28T15:47:15.096Z,99391.55
2018-03-28T15:49:43.599Z,99391.69
2018-03-28T15:52:12.098Z,99400.02
2018-03-28T15:54:40.602Z,99404.05
2018-03-28T15:57:09.099Z,99401.34
2018-03-28T15:59:37.603Z,99403.77
2018-03-28T16:02:06.062Z,99402.42
2018-03-28T16:04:34.582Z,99406.95
2018-03-28T16:07:03.090Z,99406.03
2018-03-28T16:09:31.556Z,99402.16
2018-03-28T16:12:00.076Z,99393.82
2018-03-28T16:14:28.537Z,99404.09
2018-03-28T16:16:57.042Z,99396.02
2018-03-28T16:19:25.547Z,99402.53
2018-03-28T16:21:54.041Z,99403.20
2018-03-28T16:24:22.508Z,99398.23
2018-03-28T16:26:51.010Z,99401.21
2018-03-28T16:29:19.498Z,99405.64
2018-03-28T16:31:48.028Z,99398.11
2018-03-28T16:34:16.534Z,99393.38
2018-03-28T16:36:45.043Z,99399.44
2018-03-28T16:39:13.574Z,99400.41
2018-03-28T16:41:42.096Z,99408.58
2018-03-28T16:44:10.591Z,99408.59
2018-03-28T16:46:39.089Z,99415.63
2018-03-28T16:49:07.614Z,99419.78
2018-03-28T16:51:36.077Z,99410.88
2018-03-28T16:54:04.586Z,99416.81
2018-03-28T16:56:33.265Z,99419.12
2018-03-28T16:59:01.790Z,99404.55
2018-03-28T17:01:30.302Z,99404.09
2018-03-28T17:03:58.773Z,99416.54
2018-03-28T17:06:27.278Z,99421.13
2018-03-28T17:08:55.753Z,99423.47
2018-03-28T17:11:24.213Z,99431.64
2018-03-28T17:13:52.716Z,99425.30
2018-03-28T17:16:21.206Z,99427.12
2018-03-28T17:18:49.746Z,99427.05
2018-03-28T17:21:18.237Z,99438.97
2018-03-28T17:23:46.699Z,99436.56
2018-03-28T17:26:15.190Z,99439.55
2018-03-28T17:28:43.714Z,99443.20
2018-03-28T17:31:12.166Z,99445.02
2018-03-28T17:33:40.628Z,99442.34
2018-03-28T17:36:09.117Z,99451.81
2018-03-28T17:38:37.592Z,99457.16
2018-03-28T17:41:06.094Z,99448.41
2018-03-28T17:43:34.578Z,99452.42
2018-03-28T17:46:03.090Z,99452.93
2018-03-28T17:48:31.555Z,99444.67
2018-03-28T17:51:00.023Z,99457.17
2018-03-28T17:53:28.530Z,99458.92
2018-03-28T17:55:56.995Z,99458.08
2018-03-28T17:58:25.497Z,99451.86
2018-03-28T18:00:53.962Z,99476.78
2018-03-28T18:03:22.461Z,99475.08
2018-03-28T18:05:51.067Z,99482.66
2018-03-28T18:08:19.562Z,99484.36
2018-03-28T18:10:48.018Z,99486.27
2018-03-28T18:13:16.551Z,99497.18
2018-03-28T18:15:45.042Z,99497.72
2018-03-28T18:18:13.534Z,99501.06
2018-03-28T18:20:41.991Z,99505.98
2018-03-28T18:23:10.490Z,99505.50
2018-03-28T18:25:38.958Z,99503.43
2018-03-28T18:28:07.455Z,99501.67
2018-03-28T18:30:35.965Z,99499.41
2018-03-28T18:33:04.448Z,99505.35
2018-03-28T18:35:32.950Z,99505.30
2018-03-28T18:38:01.410Z,99504.03
2018-03-28T18:40:29.996Z,99502.84
2018-03-28T18:42:58.465Z,99504.50
2018-03-28T18:45:26.969Z,99508.91
2018-03-28T18:47:55.438Z,99500.60
2018-03-28T18:50:23.900Z,99504.73
2018-03-28T18:52:52.485Z,99503.05
2018-03-28T18:55:20.968Z,99508.16
2018-03-28T18:57:49.470Z,99506.14
2018-03-28T19:00:17.961Z,99505.67
2018-03-28T19:02:46.425Z,99510.88
2018-03-28T19:05:14.930Z,99511.53
2018-03-28T19:07:43.398Z,99509.23
2018-03-28T19:10:11.886Z,99496.97
2018-03-28T19:12:40.344Z,99503.31
2018-03-28T19:15:08.832Z,99510.64
2018-03-28T19:17:37.321Z,99506.80
2018-03-28T19:20:05.782Z,99504.80
2018-03-28T19:22:34.297Z,99511.66
2018-03-28T19:25:02.770Z,99509.17
2018-03-28T19:27:31.324Z,99512.20
2018-03-28T19:29:59.794Z,99515.53
2018-03-28T19:32:28.254Z,99515.43
2018-03-28T19:34:56.800Z,99516.01
2018-03-28T19:37:25.249Z,99513.72
2018-03-28T19:39:53.741Z,99515.16
2018-03-28T19:42:22.206Z,99510.42
2018-03-28T19:44:50.702Z,99509.60
2018-03-28T19:47:19.159Z,99475.84
2018-03-28T19:49:47.624Z,99496.39
2018-03-28T19:52:16.146Z,99494.06
2018-03-28T19:54:44.669Z,99491.48
2018-03-28T19:57:13.126Z,99485.23
2018-03-28T19:59:41.643Z,99479.98
2018-03-28T20:02:10.138Z,99482.52
2018-03-28T20:04:38.597Z,99475.59
2018-03-28T20:07:07.095Z,99487.91
2018-03-28T20:09:35.589Z,99486.64
2018-03-28T20:12:04.084Z,99487.86
2018-03-28T20:14:32.608Z,99486.52
2018-03-28T20:17:01.062Z,99496.88
2018-03-28T20:19:29.546Z,99487.49
2018-03-28T20:21:58.059Z,99481.09
2018-03-28T20:24:26.526Z,99483.70
2018-03-28T20:26:55.027Z,99477.05
2018-03-28T20:29:23.478Z,99476.06
2018-03-28T20:31:51.986Z,99475.22
2018-03-28T20:34:20.440Z,99477.66
2018-03-28T20:36:48.897Z,99474.03
2018-03-28T20:39:17.387Z,99465.57
2018-03-28T20:41:45.891Z,99467.00
2018-03-28T20:44:14.386Z,99474.72
2018-03-28T20:46:42.858Z,99474.42
2018-03-28T20:49:11.351Z,99463.58
2018-03-28T20:51:39.886Z,99465.05
2018-03-28T20:54:08.347Z,99463.93
2018-03-28T20:56:36.847Z,99461.50
2018-03-28T20:59:05.353Z,99470.34
2018-03-28T21:01:33.812Z,99480.05
2018-03-28T21:04:02.291Z,99473.11
2018-03-28T21:06:30.806Z,99482.62
2018-03-28T21:08:59.262Z,99481.89
2018-03-28T21:11:27.776Z,99485.48
2018-03-28T21:13:56.306Z,99487.44
2018-03-28T21:16:24.851Z,99485.36
2018-03-28T21:18:53.309Z,99485.72
2018-03-28T21:21:21.764Z,99478.61
2018-03-28T21:23:50.254Z,99457.73
2018-03-28T21:26:18.755Z,99482.27
2018-03-28T21:28:47.266Z,99476.77
2018-03-28T21:31:15.738Z,99471.80
2018-03-28T21:33:44.230Z,99472.84
2018-03-28T21:36:12.738Z,99470.42
2018-03-28T21:38:41.218Z,99467.20
2018-03-28T21:41:09.746Z,99466.27
2018-03-28T21:43:38.221Z,99464.72
2018-03-28T21:46:06.686Z,99475.28
2018-03-28T21:48:35.178Z,99479.08
2018-03-28T21:51:03.670Z,99486.66
2018-03-28T21:53:32.158Z,99494.52
2018-03-28T21:56:00.657Z,99497.85
2018-03-28T21:58:29.162Z,99501.77
2018-03-28T22:00:57.673Z,99500.67
2018-03-28T22:03:26.131Z,99507.92
2018-03-28T22:05:54.622Z,99508.58
2018-03-28T22:08:23.749Z,99512.61
2018-03-28T22:10:52.246Z,99512.41
2018-03-28T22:13:20.742Z,99509.80
2018-03-28T22:15:49.228Z,99496.48
2018-03-28T22:18:17.718Z,99493.40
2018-03-28T22:20:46.178Z,99492.57
2018-03-28T22:23:14.680Z,99493.91
2018-03-28T22:25:43.207Z,99494.21
2018-03-28T22:28:11.696Z,99508.47
2018-03-28T22:30:40.154Z,99514.98
2018-03-28T22:33:08.649Z,99500.81
2018-03-28T22:35:37.204Z,99494.65
2018-03-28T22:38:06.582Z,99494.97
2018-03-28T22:40:35.037Z,99487.50
2018-03-28T22:43:03.552Z,99482.87
2018-03-28T22:45:32.028Z,99481.30
2018-03-28T22:48:00.493Z,99471.88
2018-03-28T22:50:29.014Z,99467.34
2018-03-28T22:52:57.518Z,99465.59
2018-03-28T22:55:25.991Z,99464.14
2018-03-28T22:57:54.446Z,99464.33
2018-03-28T23:00:22.938Z,99454.34
2018-03-28T23:02:51.424Z,99441.94
2018-03-28T23:05:19.922Z,99436.35
2018-03-28T23:07:48.375Z,99427.45
2018-03-28T23:10:16.833Z,99421.58
2018-03-28T23:12:45.329Z,99420.12
2018-03-28T23:15:13.818Z,99414.77
2018-03-28T23:17:42.321Z,99406.27
2018-03-28T23:20:10.831Z,99393.13
2018-03-28T23:22:39.334Z,99384.13
2018-03-28T23:25:07.850Z,99380.11
2018-03-28T23:27:36.315Z,99383.83
2018-03-28T23:30:04.850Z,99373.56
2018-03-28T23:32:33.330Z,99374.09
2018-03-28T23:35:01.822Z,99371.70
2018-03-28T23:37:30.297Z,99345.60
2018-03-28T23:39:58.815Z,99374.85
2018-03-28T23:42:27.274Z,99376.29
2018-03-28T23:44:55.770Z,99390.13
2018-03-28T23:47:24.282Z,99388.70
2018-03-28T23:49:52.733Z,99402.64
2018-03-28T23:52:21.240Z,99397.56
2018-03-28T23:54:49.704Z,99391.30
2018-03-28T23:57:18.202Z,99395.12
2018-03-28T23:59:46.693Z,99391.70
